createdAt,value
2023-05-06T00:00:23.411Z,15.81
2023-05-06T00:02:53.632Z,15.77
2023-05-06T00:05:27.004Z,15.82
2023-05-06T00:07:57.192Z,15.72
2023-05-06T00:10:27.264Z,15.61
2023-05-06T00:12:57.249Z,15.81
2023-05-06T00:15:27.503Z,15.78
2023-05-06T00:17:58.868Z,15.82
2023-05-06T00:20:32.404Z,15.70
2023-05-06T00:23:02.888Z,15.73
2023-05-06T00:25:32.876Z,15.70
2023-05-06T00:28:02.842Z,15.63
2023-05-06T00:30:32.761Z,15.55
2023-05-06T00:33:03.129Z,15.53
2023-05-06T00:35:35.713Z,15.70
2023-05-06T00:38:13.538Z,15.85
2023-05-06T00:40:45.706Z,15.84
2023-05-06T00:43:16.044Z,15.64
2023-05-06T00:45:46.091Z,15.61
2023-05-06T00:48:16.175Z,15.59
2023-05-06T00:50:49.098Z,15.63
2023-05-06T00:53:23.547Z,15.64
2023-05-06T00:55:54.002Z,15.49
2023-05-06T00:58:24.217Z,15.43
2023-05-06T01:00:55.456Z,15.37
2023-05-06T01:03:26.193Z,15.42
2023-05-06T01:06:11.521Z,15.21
2023-05-06T01:09:00.396Z,15.15
2023-05-06T01:11:39.159Z,15.24
2023-05-06T01:14:18.870Z,15.29
2023-05-06T01:16:55.643Z,15.16
2023-05-06T01:19:39.845Z,15.15
2023-05-06T01:22:15.998Z,15.25
2023-05-06T01:24:49.883Z,15.24
2023-05-06T01:27:19.976Z,15.06
2023-05-06T01:29:51.151Z,15.03
2023-05-06T01:32:41.826Z,15.13
2023-05-06T01:35:22.904Z,15.04
2023-05-06T01:38:05.505Z,14.92
2023-05-06T01:40:39.403Z,14.82
2023-05-06T01:43:10.603Z,14.92
2023-05-06T01:45:42.250Z,14.96
2023-05-06T01:48:13.089Z,14.97
2023-05-06T01:50:43.950Z,15.06
2023-05-06T01:53:14.692Z,15.16
2023-05-06T01:55:48.281Z,14.93
2023-05-06T01:58:19.933Z,14.88
2023-05-06T02:00:49.835Z,14.92
2023-05-06T02:03:19.870Z,14.87
2023-05-06T02:05:50.626Z,14.85
2023-05-06T02:08:20.676Z,14.89
2023-05-06T02:10:53.426Z,14.93
2023-05-06T02:13:24.503Z,14.76
2023-05-06T02:15:56.507Z,14.77
2023-05-06T02:18:26.651Z,14.73
2023-05-06T02:20:56.710Z,14.77
2023-05-06T02:23:26.617Z,14.60
2023-05-06T02:25:59.399Z,14.63
2023-05-06T02:28:29.487Z,14.61
2023-05-06T02:31:00.520Z,14.57
2023-05-06T02:33:30.507Z,14.54
2023-05-06T02:36:00.472Z,14.52
2023-05-06T02:38:30.393Z,14.53
2023-05-06T02:41:02.971Z,14.50
2023-05-06T02:43:33.021Z,14.52
2023-05-06T02:46:03.100Z,14.49
2023-05-06T02:48:33.171Z,14.60
2023-05-06T02:51:03.160Z,14.68
2023-05-06T02:53:33.114Z,14.41
2023-05-06T02:56:06.196Z,14.34
2023-05-06T02:58:36.168Z,14.25
2023-05-06T03:01:06.411Z,14.31
2023-05-06T03:03:36.664Z,14.36
2023-05-06T03:06:06.888Z,14.33
2023-05-06T03:08:36.993Z,14.38
2023-05-06T03:11:11.758Z,14.46
2023-05-06T03:13:41.849Z,14.34
2023-05-06T03:16:16.059Z,14.33
2023-05-06T03:18:50.040Z,14.32
2023-05-06T03:21:20.944Z,14.37
2023-05-06T03:23:52.700Z,14.31
2023-05-06T03:26:28.476Z,14.24
2023-05-06T03:28:59.286Z,14.16
2023-05-06T03:31:29.353Z,14.14
2023-05-06T03:34:01.343Z,14.25
2023-05-06T03:36:31.877Z,14.24
2023-05-06T03:39:02.160Z,14.27
2023-05-06T03:41:37.005Z,14.31
2023-05-06T03:44:07.209Z,14.29
2023-05-06T03:46:39.174Z,14.18
2023-05-06T03:49:09.534Z,14.18
2023-05-06T03:51:40.084Z,13.99
2023-05-06T03:54:10.123Z,13.94
2023-05-06T03:56:42.684Z,14.03
2023-05-06T03:59:13.094Z,13.92
2023-05-06T04:01:44.604Z,14.12
2023-05-06T04:04:16.152Z,13.99
2023-05-06T04:06:46.493Z,13.97
2023-05-06T04:09:16.522Z,14.02
2023-05-06T04:11:49.557Z,13.87
2023-05-06T04:14:21.185Z,13.90
2023-05-06T04:16:51.917Z,13.99
2023-05-06T04:19:23.534Z,14.04
2023-05-06T04:21:53.564Z,13.92
2023-05-06T04:24:23.678Z,14.04
2023-05-06T04:26:56.316Z,14.04
2023-05-06T04:29:27.606Z,14.13
2023-05-06T04:32:03.080Z,14.19
2023-05-06T04:34:36.467Z,14.20
2023-05-06T04:37:07.846Z,14.01
2023-05-06T04:39:46.779Z,14.19
2023-05-06T04:42:19.672Z,14.19
2023-05-06T04:44:59.773Z,14.36
2023-05-06T04:47:34.093Z,14.35
2023-05-06T04:50:04.581Z,14.36
2023-05-06T04:52:35.866Z,14.41
2023-05-06T04:55:06.568Z,14.35
2023-05-06T04:57:41.287Z,14.42
2023-05-06T05:00:13.207Z,14.32
2023-05-06T05:02:43.314Z,14.40
2023-05-06T05:05:14.256Z,14.56
2023-05-06T05:07:46.316Z,14.56
2023-05-06T05:10:16.673Z,14.63
2023-05-06T05:12:49.460Z,14.67
2023-05-06T05:15:20.575Z,14.76
2023-05-06T05:17:50.926Z,14.81
2023-05-06T05:20:21.940Z,14.96
2023-05-06T05:22:51.860Z,14.92
2023-05-06T05:25:21.953Z,15.01
2023-05-06T05:27:54.991Z,14.97
2023-05-06T05:30:24.989Z,14.82
2023-05-06T05:32:56.600Z,14.95
2023-05-06T05:35:26.841Z,15.02
2023-05-06T05:37:58.086Z,14.93
2023-05-06T05:40:28.243Z,14.86
2023-05-06T05:43:00.914Z,14.99
2023-05-06T05:45:36.743Z,15.10
2023-05-06T05:48:07.398Z,15.17
2023-05-06T05:50:37.521Z,15.08
2023-05-06T05:53:08.481Z,15.08
2023-05-06T05:55:40.620Z,15.18
2023-05-06T05:58:13.808Z,15.20
2023-05-06T06:00:45.055Z,15.00
2023-05-06T06:03:18.429Z,15.03
2023-05-06T06:05:49.552Z,15.22
2023-05-06T06:08:21.183Z,15.22
2023-05-06T06:10:54.244Z,15.29
2023-05-06T06:13:30.737Z,15.43
2023-05-06T06:16:02.654Z,15.42
2023-05-06T06:18:32.779Z,15.47
2023-05-06T06:21:02.782Z,15.56
2023-05-06T06:23:32.920Z,15.43
2023-05-06T06:26:02.983Z,15.40
2023-05-06T06:28:36.091Z,15.27
2023-05-06T06:31:06.083Z,15.26
2023-05-06T06:33:36.281Z,15.52
2023-05-06T06:36:06.780Z,15.57
2023-05-06T06:38:36.732Z,15.61
2023-05-06T06:41:07.679Z,15.63
2023-05-06T06:43:40.211Z,15.62
2023-05-06T06:46:19.904Z,15.94
2023-05-06T06:48:49.904Z,15.99
2023-05-06T06:51:19.937Z,16.02
2023-05-06T06:53:50.491Z,16.19
2023-05-06T06:56:20.507Z,16.26
2023-05-06T06:58:53.502Z,16.30
2023-05-06T07:01:23.626Z,16.26
2023-05-06T07:03:53.642Z,16.25
2023-05-06T07:06:23.822Z,16.34
2023-05-06T07:08:54.059Z,16.27
2023-05-06T07:11:24.096Z,16.36
2023-05-06T07:13:56.730Z,16.42
2023-05-06T07:16:26.878Z,16.39
2023-05-06T07:18:56.956Z,16.50
2023-05-06T07:21:27.276Z,16.63
2023-05-06T07:23:57.402Z,16.49
2023-05-06T07:26:27.656Z,16.49
2023-05-06T07:29:00.902Z,16.45
2023-05-06T07:31:31.056Z,16.66
2023-05-06T07:34:01.249Z,16.74
2023-05-06T07:36:36.837Z,16.96
2023-05-06T07:39:08.023Z,17.13
2023-05-06T07:41:37.991Z,17.00
2023-05-06T07:44:11.006Z,17.18
2023-05-06T07:46:41.472Z,17.28
2023-05-06T07:49:11.510Z,17.24
2023-05-06T07:51:41.517Z,17.32
2023-05-06T07:54:11.570Z,17.69
2023-05-06T07:56:41.539Z,17.64
2023-05-06T07:59:14.226Z,17.71
2023-05-06T08:01:44.294Z,17.47
2023-05-06T08:04:14.436Z,17.91
2023-05-06T08:06:44.503Z,17.88
2023-05-06T08:09:22.696Z,17.59
2023-05-06T08:11:53.503Z,17.66
2023-05-06T08:14:26.158Z,17.59
2023-05-06T08:16:56.248Z,17.56
2023-05-06T08:19:26.661Z,17.64
2023-05-06T08:21:56.968Z,17.90
2023-05-06T08:24:27.082Z,17.94
2023-05-06T08:26:57.039Z,18.14
2023-05-06T08:29:29.891Z,18.51
2023-05-06T08:31:59.865Z,18.52
2023-05-06T08:34:29.938Z,18.75
2023-05-06T08:37:00.412Z,18.88
2023-05-06T08:39:31.052Z,18.70
2023-05-06T08:42:03.640Z,18.86
2023-05-06T08:44:36.352Z,19.13
2023-05-06T08:47:06.845Z,19.00
2023-05-06T08:49:37.101Z,19.00
2023-05-06T08:52:08.699Z,19.36
2023-05-06T08:54:38.702Z,19.41
2023-05-06T08:57:10.996Z,19.33
2023-05-06T08:59:45.870Z,19.44
2023-05-06T09:02:16.332Z,19.29
2023-05-06T09:04:48.178Z,19.59
2023-05-06T09:07:18.748Z,19.94
2023-05-06T09:09:48.733Z,19.73
2023-05-06T09:12:18.813Z,19.70
2023-05-06T09:14:53.122Z,19.42
2023-05-06T09:17:26.905Z,19.74
2023-05-06T09:19:59.321Z,20.02
2023-05-06T09:22:31.398Z,19.90
2023-05-06T09:25:01.734Z,20.20
2023-05-06T09:27:34.825Z,20.03
2023-05-06T09:30:09.878Z,20.53
2023-05-06T09:32:40.612Z,20.18
2023-05-06T09:35:12.610Z,20.27
2023-05-06T09:37:42.822Z,20.27
2023-05-06T09:40:13.510Z,20.29
2023-05-06T09:42:46.670Z,20.26
2023-05-06T09:45:20.140Z,20.68
2023-05-06T09:47:52.942Z,20.77
2023-05-06T09:50:24.755Z,20.65
2023-05-06T09:52:55.270Z,20.74
2023-05-06T09:55:27.304Z,20.28
2023-05-06T09:57:58.342Z,20.68
2023-05-06T10:00:34.083Z,21.12
2023-05-06T10:03:05.319Z,21.07
2023-05-06T10:05:38.582Z,20.71
2023-05-06T10:08:10.895Z,20.86
2023-05-06T10:10:44.656Z,20.83
2023-05-06T10:13:16.335Z,20.74
2023-05-06T10:15:50.850Z,20.76
2023-05-06T10:18:23.042Z,20.72
2023-05-06T10:20:55.892Z,20.71
2023-05-06T10:23:31.921Z,20.74
2023-05-06T10:26:09.656Z,20.74
2023-05-06T10:28:43.612Z,20.89
2023-05-06T10:31:16.836Z,21.02
2023-05-06T10:33:52.166Z,20.63
2023-05-06T10:36:30.699Z,20.50
2023-05-06T10:39:04.093Z,21.00
2023-05-06T10:41:35.143Z,20.95
2023-05-06T10:44:06.257Z,21.06
2023-05-06T10:47:02.539Z,21.12
2023-05-06T10:49:32.569Z,20.94
2023-05-06T10:52:17.123Z,21.19
2023-05-06T10:54:51.966Z,21.48
2023-05-06T10:57:27.223Z,21.63
2023-05-06T10:59:57.603Z,21.78
2023-05-06T11:02:33.431Z,21.63
2023-05-06T11:05:04.950Z,22.09
2023-05-06T11:07:35.096Z,22.23
2023-05-06T11:10:08.405Z,22.31
2023-05-06T11:12:49.725Z,22.65
2023-05-06T11:15:38.908Z,22.77
2023-05-06T11:18:53.969Z,22.75
2023-05-06T11:21:44.496Z,22.86
2023-05-06T11:24:16.811Z,23.37
2023-05-06T11:26:46.944Z,23.03
2023-05-06T11:29:18.906Z,23.04
2023-05-06T11:31:49.832Z,23.40
2023-05-06T11:34:26.904Z,23.78
2023-05-06T11:37:02.806Z,24.09
2023-05-06T11:39:39.936Z,24.11
2023-05-06T11:42:11.960Z,24.34
2023-05-06T11:44:42.766Z,24.43
2023-05-06T11:47:12.786Z,24.36
2023-05-06T11:49:44.503Z,24.29
2023-05-06T11:52:17.076Z,24.22
2023-05-06T11:57:17.574Z,24.61
2023-05-06T11:59:47.545Z,25.19
2023-05-06T12:02:17.945Z,25.77
2023-05-06T12:04:50.403Z,25.40
2023-05-06T12:07:23.007Z,25.66
2023-05-06T12:09:54.716Z,26.09
2023-05-06T12:12:28.289Z,24.99
2023-05-06T12:14:58.657Z,25.52
2023-05-06T12:17:29.239Z,26.09
2023-05-06T12:19:59.613Z,26.50
2023-05-06T12:22:32.201Z,26.57
2023-05-06T12:25:15.059Z,26.96
2023-05-06T12:27:45.737Z,27.45
2023-05-06T12:30:16.521Z,27.98
2023-05-06T12:33:01.704Z,28.30
2023-05-06T12:35:33.840Z,28.15
2023-05-06T12:38:14.165Z,28.15
2023-05-06T12:40:46.165Z,27.63
2023-05-06T12:43:16.559Z,28.91
2023-05-06T12:45:46.655Z,29.44
2023-05-06T12:48:19.657Z,30.45
2023-05-06T12:50:50.579Z,30.00
2023-05-06T12:53:34.303Z,30.36
2023-05-06T12:56:04.463Z,29.66
2023-05-06T12:58:37.728Z,30.09
2023-05-06T13:01:08.139Z,30.56
2023-05-06T13:03:40.999Z,30.69
2023-05-06T13:06:11.201Z,30.78
2023-05-06T13:08:43.908Z,30.65
2023-05-06T13:11:13.910Z,32.26
2023-05-06T13:13:43.894Z,31.06
2023-05-06T13:16:13.928Z,30.66
2023-05-06T13:18:43.985Z,31.70
2023-05-06T13:21:14.242Z,31.69
2023-05-06T13:23:48.083Z,32.16
2023-05-06T13:26:18.838Z,33.56
2023-05-06T13:28:48.855Z,32.06
2023-05-06T13:31:18.945Z,34.87
2023-05-06T13:33:48.959Z,34.90
2023-05-06T13:36:19.060Z,32.99
2023-05-06T13:38:51.707Z,34.33
2023-05-06T13:41:21.649Z,34.96
2023-05-06T13:43:51.625Z,36.83
2023-05-06T13:46:21.636Z,36.83
2023-05-06T13:48:51.740Z,35.92
2023-05-06T13:51:21.719Z,36.60
2023-05-06T13:53:54.249Z,35.22
2023-05-06T13:56:24.332Z,37.69
2023-05-06T13:58:54.396Z,38.34
2023-05-06T14:01:24.723Z,36.32
2023-05-06T14:03:55.377Z,36.61
2023-05-06T14:06:25.372Z,37.05
2023-05-06T14:08:57.966Z,36.69
2023-05-06T14:11:27.952Z,36.64
2023-05-06T14:13:58.689Z,35.48
2023-05-06T14:16:28.849Z,36.52
2023-05-06T14:18:58.823Z,36.05
2023-05-06T14:21:28.943Z,35.69
2023-05-06T14:24:06.874Z,37.72
2023-05-06T14:26:37.755Z,35.92
2023-05-06T14:29:07.831Z,37.05
2023-05-06T14:31:38.025Z,38.10
2023-05-06T14:34:08.192Z,35.18
2023-05-06T14:36:38.410Z,35.30
2023-05-06T14:39:11.109Z,38.48
2023-05-06T14:41:41.207Z,38.32
2023-05-06T14:44:11.191Z,38.23
2023-05-06T14:46:41.159Z,39.23
2023-05-06T14:49:11.258Z,34.83
2023-05-06T14:51:41.266Z,37.04
2023-05-06T14:54:14.084Z,37.66
2023-05-06T14:56:45.598Z,33.89
2023-05-06T14:59:15.584Z,35.98
2023-05-06T15:01:45.638Z,38.58
2023-05-06T15:04:15.745Z,39.80
2023-05-06T15:06:45.686Z,40.61
2023-05-06T15:09:18.344Z,39.36
2023-05-06T15:11:48.339Z,37.85
2023-05-06T15:14:18.384Z,36.93
2023-05-06T15:16:48.472Z,36.59
2023-05-06T15:19:18.486Z,37.31
2023-05-06T15:21:48.689Z,35.23
2023-05-06T15:24:21.216Z,36.02
2023-05-06T15:26:51.189Z,36.86
2023-05-06T15:29:21.385Z,36.09
2023-05-06T15:31:51.461Z,35.74
2023-05-06T15:34:21.930Z,36.94
2023-05-06T15:36:54.429Z,36.70
2023-05-06T15:39:26.914Z,35.87
2023-05-06T15:41:56.982Z,35.95
2023-05-06T15:44:27.187Z,35.06
2023-05-06T15:46:57.190Z,32.82
2023-05-06T15:49:49.498Z,32.86
2023-05-06T15:52:17.073Z,33.73
2023-05-06T15:54:50.255Z,33.05
2023-05-06T15:57:20.578Z,32.35
2023-05-06T15:59:50.831Z,31.89
2023-05-06T16:04:54.361Z,33.11
2023-05-06T16:07:25.195Z,32.43
2023-05-06T16:09:57.892Z,31.94
2023-05-06T16:12:32.128Z,30.78
2023-05-06T16:15:03.432Z,30.78
2023-05-06T16:17:37.804Z,30.62
2023-05-06T16:20:10.496Z,30.83
2023-05-06T16:22:42.219Z,30.47
2023-05-06T16:25:14.975Z,30.36
2023-05-06T16:27:44.956Z,30.27
2023-05-06T16:30:15.728Z,30.36
2023-05-06T16:32:45.871Z,29.49
2023-05-06T16:35:16.038Z,29.46
2023-05-06T16:37:46.312Z,29.67
2023-05-06T16:40:22.059Z,30.20
2023-05-06T16:42:52.825Z,29.74
2023-05-06T16:45:23.059Z,29.57
2023-05-06T16:47:53.112Z,29.20
2023-05-06T16:50:23.309Z,29.27
2023-05-06T16:52:54.118Z,28.81
2023-05-06T16:55:26.858Z,28.34
2023-05-06T16:57:56.823Z,28.42
2023-05-06T17:00:28.327Z,28.15
2023-05-06T17:02:58.579Z,27.60
2023-05-06T17:05:31.120Z,27.68
2023-05-06T17:08:03.617Z,27.64
2023-05-06T17:10:36.293Z,26.94
2023-05-06T17:13:06.565Z,26.51
2023-05-06T17:15:36.620Z,26.34
2023-05-06T17:18:06.881Z,26.07
2023-05-06T17:20:51.531Z,25.95
2023-05-06T17:23:24.901Z,25.71
2023-05-06T17:25:58.693Z,25.55
2023-05-06T17:28:28.950Z,25.43
2023-05-06T17:30:59.033Z,25.39
2023-05-06T17:33:28.972Z,25.17
2023-05-06T17:35:59.013Z,24.95
2023-05-06T17:38:29.038Z,24.81
2023-05-06T17:41:01.553Z,24.62
2023-05-06T17:43:31.506Z,24.35
2023-05-06T17:46:01.686Z,24.27
2023-05-06T17:48:31.821Z,24.16
2023-05-06T17:51:03.319Z,24.01
2023-05-06T17:53:34.354Z,24.10
2023-05-06T17:56:07.616Z,23.69
2023-05-06T17:58:37.627Z,23.58
2023-05-06T18:01:07.728Z,23.59
2023-05-06T18:03:38.000Z,23.45
2023-05-06T18:06:08.204Z,23.24
2023-05-06T18:08:38.263Z,23.21
2023-05-06T18:11:11.065Z,23.10
2023-05-06T18:13:41.779Z,22.96
2023-05-06T18:16:11.806Z,23.03
2023-05-06T18:18:41.785Z,22.91
2023-05-06T18:21:11.704Z,22.76
2023-05-06T18:23:41.678Z,22.79
2023-05-06T18:26:19.074Z,22.56
2023-05-06T18:28:54.488Z,22.38
2023-05-06T18:31:24.879Z,22.27
2023-05-06T18:33:54.801Z,22.20
2023-05-06T18:36:24.758Z,22.24
2023-05-06T18:38:54.761Z,22.12
2023-05-06T18:41:27.728Z,22.06
2023-05-06T18:43:57.649Z,21.91
2023-05-06T18:46:28.170Z,21.78
2023-05-06T18:48:59.242Z,21.71
2023-05-06T18:51:29.292Z,21.67
2023-05-06T18:53:59.229Z,21.64
2023-05-06T18:56:31.932Z,21.50
2023-05-06T18:59:02.616Z,21.34
2023-05-06T19:01:32.745Z,21.37
2023-05-06T19:04:02.829Z,21.24
2023-05-06T19:06:33.980Z,21.13
2023-05-06T19:09:03.990Z,21.09
2023-05-06T19:11:36.769Z,21.08
2023-05-06T19:14:06.713Z,21.06
2023-05-06T19:16:36.849Z,20.98
2023-05-06T19:19:07.728Z,20.93
2023-05-06T19:21:38.604Z,20.76
2023-05-06T19:24:09.167Z,20.76
2023-05-06T19:26:41.771Z,20.73
2023-05-06T19:29:11.700Z,20.66
2023-05-06T19:31:41.687Z,20.66
2023-05-06T19:34:11.692Z,20.63
2023-05-06T19:36:41.675Z,20.56
2023-05-06T19:39:11.707Z,20.50
2023-05-06T19:41:45.134Z,20.34
2023-05-06T19:44:15.153Z,20.35
2023-05-06T19:46:45.278Z,20.41
2023-05-06T19:49:15.365Z,20.39
2023-05-06T19:51:45.369Z,20.33
2023-05-06T19:54:15.388Z,20.30
2023-05-06T19:56:49.022Z,20.24
2023-05-06T19:59:19.824Z,20.22
2023-05-06T20:01:49.763Z,20.14
2023-05-06T20:04:19.821Z,20.16
2023-05-06T20:06:49.785Z,20.10
2023-05-06T20:09:19.783Z,19.97
2023-05-06T20:11:52.375Z,19.95
2023-05-06T20:14:23.064Z,20.01
2023-05-06T20:16:53.193Z,20.06
2023-05-06T20:19:29.377Z,19.94
2023-05-06T20:22:00.483Z,19.85
2023-05-06T20:24:32.305Z,19.83
2023-05-06T20:27:04.962Z,19.74
2023-05-06T20:29:35.360Z,19.72
2023-05-06T20:32:05.581Z,19.68
2023-05-06T20:34:35.591Z,19.54
2023-05-06T20:37:06.849Z,19.62
2023-05-06T20:39:36.954Z,19.48
2023-05-06T20:42:11.085Z,19.39
2023-05-06T20:44:41.556Z,19.48
2023-05-06T20:47:12.611Z,19.54
2023-05-06T20:49:42.760Z,19.45
2023-05-06T20:52:14.822Z,19.34
2023-05-06T20:54:45.124Z,19.28
2023-05-06T20:57:19.976Z,19.27
2023-05-06T20:59:51.894Z,19.13
2023-05-06T21:02:22.028Z,19.14
2023-05-06T21:04:52.173Z,19.12
2023-05-06T21:07:22.196Z,19.02
2023-05-06T21:09:52.150Z,18.94
2023-05-06T21:12:24.788Z,19.06
2023-05-06T21:14:54.748Z,19.07
2023-05-06T21:17:24.764Z,18.96
2023-05-06T21:19:55.466Z,18.99
2023-05-06T21:22:25.987Z,18.96
2023-05-06T21:24:56.109Z,18.88
2023-05-06T21:27:28.859Z,18.70
2023-05-06T21:29:58.835Z,18.76
2023-05-06T21:32:33.301Z,18.58
2023-05-06T21:35:05.547Z,18.61
2023-05-06T21:37:35.797Z,18.71
2023-05-06T21:40:06.811Z,18.55
2023-05-06T21:42:39.559Z,18.53
2023-05-06T21:45:11.544Z,18.58
2023-05-06T21:47:42.973Z,18.40
2023-05-06T21:50:13.967Z,18.45
2023-05-06T21:52:44.396Z,18.44
2023-05-06T21:55:14.407Z,18.34
2023-05-06T21:57:47.031Z,18.23
2023-05-06T22:00:18.080Z,18.31
2023-05-06T22:02:48.140Z,18.26
2023-05-06T22:05:18.514Z,18.07
2023-05-06T22:07:48.523Z,18.08
2023-05-06T22:10:18.539Z,18.09
2023-05-06T22:12:51.181Z,18.10
2023-05-06T22:15:21.395Z,18.07
2023-05-06T22:17:51.376Z,18.01
2023-05-06T22:20:21.599Z,18.09
2023-05-06T22:22:54.287Z,18.04
2023-05-06T22:25:24.505Z,17.93
2023-05-06T22:27:57.057Z,17.97
2023-05-06T22:30:27.105Z,17.94
2023-05-06T22:32:57.229Z,17.93
2023-05-06T22:35:27.165Z,17.85
2023-05-06T22:37:57.140Z,17.76
2023-05-06T22:40:27.941Z,17.71
2023-05-06T22:43:00.515Z,17.81
2023-05-06T22:45:30.443Z,17.66
2023-05-06T22:48:00.601Z,17.66
2023-05-06T22:50:30.906Z,17.60
2023-05-06T22:53:10.239Z,17.67
2023-05-06T22:55:43.996Z,17.62
2023-05-06T22:58:16.892Z,17.68
2023-05-06T23:00:48.203Z,17.60
2023-05-06T23:03:18.558Z,17.62
2023-05-06T23:05:48.743Z,17.57
2023-05-06T23:08:19.137Z,17.54
2023-05-06T23:10:49.185Z,17.36
2023-05-06T23:13:21.821Z,17.34
2023-05-06T23:15:51.917Z,17.31
2023-05-06T23:18:22.103Z,17.38
2023-05-06T23:20:52.042Z,17.32
2023-05-06T23:23:21.937Z,17.30
2023-05-06T23:25:53.483Z,17.29
2023-05-06T23:28:26.279Z,17.23
2023-05-06T23:30:56.311Z,17.24
2023-05-06T23:33:26.890Z,17.18
2023-05-06T23:35:56.913Z,17.03
2023-05-06T23:38:26.935Z,17.01
2023-05-06T23:40:57.127Z,17.11
2023-05-06T23:43:29.687Z,17.20
2023-05-06T23:45:59.658Z,17.10
2023-05-06T23:48:29.640Z,17.11
2023-05-06T23:50:59.619Z,17.08
2023-05-06T23:53:29.572Z,17.06
2023-05-06T23:55:59.649Z,16.94
2023-05-06T23:58:32.283Z,16.98
